Time;durP1;ratioP1;P1;durP2;ratioP2;P2;SDS_P1;SDS_P2;PMS_P1;PMS_P2;Temp;Humidity;BMP_temperature;BMP_pressure;BME280_temperature;BME280_humidity;BME280_pressure;Samples;Min_cycle;Max_cycle;Signal;HPM_P1;HPM_P2
2022/02/07 00:00:47;;;;;;;12.02;2.60;;;3.30;99.90;;;;;;4921070;29;20048;-81
2022/02/07 00:05:40;;;;;;;13.98;2.70;;;3.10;99.90;;;;;;4943734;29;20020;-81
2022/02/07 00:08:08;;;;;;;12.93;2.42;;;2.90;99.90;;;;;;4942518;29;20067;-82
2022/02/07 00:10:36;;;;;;;15.80;1.90;;;3.00;99.90;;;;;;4944631;29;20133;-82
2022/02/07 00:13:02;;;;;;;9.40;1.73;;;2.90;99.90;;;;;;4927990;29;20035;-81
2022/02/07 00:15:28;;;;;;;9.63;1.90;;;2.80;99.90;;;;;;4943481;29;20407;-81
2022/02/07 00:17:53;;;;;;;13.60;2.10;;;2.80;99.90;;;;;;4946443;29;20024;-81
2022/02/07 00:20:21;;;;;;;7.75;1.10;;;2.80;99.90;;;;;;4961238;29;20067;-80
2022/02/07 00:22:48;;;;;;;9.15;1.85;;;2.80;99.90;;;;;;4944953;29;20034;-81
2022/02/07 00:25:16;;;;;;;8.32;1.33;;;2.70;99.90;;;;;;4935862;29;20067;-82
2022/02/07 00:27:42;;;;;;;9.32;1.88;;;2.70;99.90;;;;;;4943313;29;20044;-82
2022/02/07 00:30:09;;;;;;;10.75;1.58;;;2.70;99.90;;;;;;4960507;28;20039;-81
2022/02/07 00:32:36;;;;;;;10.63;2.15;;;2.70;99.90;;;;;;4947640;29;20114;-85
2022/02/07 00:35:03;;;;;;;9.88;2.22;;;2.70;99.90;;;;;;4945244;29;20046;-83
2022/02/07 00:37:31;;;;;;;9.52;2.30;;;2.70;99.90;;;;;;4945557;29;20047;-82
2022/02/07 00:40:17;;;;;;;16.42;3.08;;;2.70;99.90;;;;;;4942173;29;20132;-82
2022/02/07 00:48:07;;;;;;;14.05;2.30;;;3.10;99.90;;;;;;4947440;29;20047;-81
2022/02/07 00:50:34;;;;;;;13.00;2.22;;;3.10;99.90;;;;;;4944692;29;20042;-82
2022/02/07 00:53:01;;;;;;;14.35;2.50;;;3.20;99.90;;;;;;4937143;29;20036;-81
2022/02/07 00:55:27;;;;;;;16.27;2.63;;;3.10;99.90;;;;;;4940639;29;20044;-83
2022/02/07 00:57:53;;;;;;;16.55;3.08;;;3.10;99.90;;;;;;4954474;29;20590;-82
2022/02/07 01:00:20;;;;;;;19.38;3.15;;;3.00;99.90;;;;;;4950051;29;20126;-81
2022/02/07 01:02:46;;;;;;;18.45;3.45;;;3.00;99.90;;;;;;4962907;28;20043;-81
2022/02/07 01:05:13;;;;;;;23.52;3.70;;;2.90;99.90;;;;;;4932295;29;20032;-82
2022/02/07 01:07:41;;;;;;;16.48;2.97;;;2.90;99.90;;;;;;4937836;29;20472;-82
2022/02/07 01:10:07;;;;;;;11.38;2.65;;;2.90;99.90;;;;;;4936536;29;20038;-81
2022/02/07 01:15:11;;;;;;;13.50;2.17;;;2.90;99.90;;;;;;4923167;28;20067;-82
2022/02/07 01:55:34;;;;;;;14.45;2.50;;;3.30;99.90;;;;;;4963285;28;20050;-83
2022/02/07 01:58:00;;;;;;;12.35;2.17;;;3.40;99.90;;;;;;4963982;28;20585;-83
2022/02/07 02:00:26;;;;;;;8.95;1.90;;;3.40;99.90;;;;;;4980790;28;20039;-83
2022/02/07 02:02:52;;;;;;;17.58;2.40;;;3.40;99.90;;;;;;4953447;28;20031;-83
2022/02/07 02:05:18;;;;;;;10.45;1.98;;;3.50;99.90;;;;;;4959482;28;20506;-83
2022/02/07 02:07:45;;;;;;;17.70;2.40;;;3.50;99.90;;;;;;4961834;28;20053;-83
2022/02/07 02:10:11;;;;;;;19.08;2.70;;;3.50;99.90;;;;;;4958277;28;20041;-83
2022/02/07 02:12:59;;;;;;;15.65;2.97;;;3.50;99.90;;;;;;4952478;28;20392;-82
2022/02/07 02:18:46;;;;;;;18.95;3.00;;;3.40;99.90;;;;;;4948145;28;20077;-82
2022/02/07 02:37:21;;;;;;;17.60;3.13;;;3.70;99.90;;;;;;4944926;28;20046;-83
2022/02/07 02:47:55;;;;;;;18.85;3.03;;;3.70;99.90;;;;;;4977927;28;20054;-83
2022/02/07 02:50:32;;;;;;;15.90;2.53;;;3.80;99.90;;;;;;4959825;28;20405;-83
2022/02/07 02:53:08;;;;;;;16.77;3.15;;;3.90;99.90;;;;;;4971745;28;20045;-83
2022/02/07 02:55:37;;;;;;;16.40;3.13;;;3.90;99.90;;;;;;4956287;28;20034;-82
2022/02/07 02:58:04;;;;;;;16.88;3.20;;;3.90;99.90;;;;;;4960487;28;20023;-82
2022/02/07 03:00:31;;;;;;;21.90;2.92;;;3.80;99.90;;;;;;4972623;28;20537;-84
2022/02/07 03:02:57;;;;;;;15.88;2.33;;;3.90;99.90;;;;;;4956898;28;20035;-83
2022/02/07 03:05:24;;;;;;;24.55;3.83;;;3.80;99.90;;;;;;4968039;28;20046;-83
2022/02/07 03:07:50;;;;;;;19.23;3.08;;;3.80;99.90;;;;;;4960429;28;20051;-82
2022/02/07 03:10:26;;;;;;;18.73;3.55;;;3.80;99.90;;;;;;4980738;28;20043;-83
2022/02/07 03:18:09;;;;;;;19.58;3.30;;;3.90;99.90;;;;;;4961577;28;20049;-83
2022/02/07 03:20:34;;;;;;;16.88;3.13;;;3.90;99.90;;;;;;4943099;28;20019;-83
2022/02/07 03:23:00;;;;;;;17.48;3.58;;;3.90;99.90;;;;;;4957557;28;20031;-82
2022/02/07 03:25:26;;;;;;;23.42;4.22;;;4.00;99.90;;;;;;4954143;28;20035;-83
2022/02/07 03:27:51;;;;;;;19.58;3.05;;;4.00;99.90;;;;;;4942472;28;20042;-82
2022/02/07 03:30:17;;;;;;;22.85;3.25;;;4.00;99.90;;;;;;4944075;28;20023;-83
2022/02/07 03:32:43;;;;;;;24.95;3.88;;;4.10;99.90;;;;;;4960890;28;20133;-83
2022/02/07 03:35:09;;;;;;;23.98;3.55;;;4.20;99.90;;;;;;4936706;28;20043;-82
2022/02/07 03:37:38;;;;;;;24.92;3.72;;;4.20;99.90;;;;;;4954567;28;20059;-83
2022/02/07 03:40:04;;;;;;;18.02;3.75;;;4.20;99.90;;;;;;4958197;28;20123;-82
2022/02/07 03:42:29;;;;;;;21.85;3.72;;;4.30;99.90;;;;;;4956687;28;20031;-83
2022/02/07 03:44:55;;;;;;;22.13;3.53;;;4.30;99.90;;;;;;4929227;28;20505;-83
2022/02/07 03:47:21;;;;;;;22.08;4.25;;;4.30;99.90;;;;;;4954852;28;20031;-83
2022/02/07 03:49:46;;;;;;;17.58;4.15;;;4.30;99.90;;;;;;4967739;28;20034;-83
2022/02/07 03:52:12;;;;;;;16.02;3.38;;;4.40;99.90;;;;;;4943201;28;20027;-83
2022/02/07 03:54:38;;;;;;;17.45;3.03;;;4.40;99.90;;;;;;4940109;28;20100;-83
2022/02/07 03:57:04;;;;;;;17.35;3.10;;;4.50;99.90;;;;;;4941918;28;20106;-83
2022/02/07 03:59:30;;;;;;;17.70;3.28;;;4.40;99.90;;;;;;4954870;28;20035;-83
2022/02/07 04:01:55;;;;;;;19.75;3.33;;;4.40;99.90;;;;;;4938282;28;20046;-83
2022/02/07 04:04:21;;;;;;;22.70;3.80;;;4.20;99.90;;;;;;4951758;28;20027;-83
2022/02/07 04:06:47;;;;;;;25.50;4.28;;;4.20;99.90;;;;;;4943428;28;20069;-83
2022/02/07 04:09:20;;;;;;;25.30;3.92;;;4.10;99.90;;;;;;4956998;28;20098;-83
2022/02/07 04:11:51;;;;;;;19.65;4.15;;;4.00;99.90;;;;;;4962477;28;20038;-85
2022/02/07 04:14:22;;;;;;;18.45;3.17;;;4.00;99.90;;;;;;4958546;28;20062;-85
2022/02/07 04:16:48;;;;;;;20.10;3.53;;;4.10;99.90;;;;;;4925621;28;20051;-83
2022/02/07 04:19:18;;;;;;;19.67;3.78;;;4.00;99.90;;;;;;4945763;28;20042;-85
2022/02/07 04:21:46;;;;;;;27.60;3.75;;;4.00;99.90;;;;;;4961938;28;20129;-84
2022/02/07 04:24:12;;;;;;;23.55;4.05;;;4.00;99.90;;;;;;4980499;28;20058;-84
2022/02/07 04:26:38;;;;;;;30.08;4.57;;;4.00;99.90;;;;;;4965238;28;20042;-85
2022/02/07 04:29:04;;;;;;;24.75;4.97;;;4.00;99.90;;;;;;4960653;28;20078;-83
2022/02/07 04:31:30;;;;;;;21.15;3.90;;;4.00;99.90;;;;;;4941914;28;20391;-87
2022/02/07 04:33:55;;;;;;;29.48;4.22;;;4.10;99.90;;;;;;4960854;28;20112;-83
2022/02/07 04:36:22;;;;;;;29.17;7.03;;;4.10;99.90;;;;;;4943953;28;20034;-83
2022/02/07 04:38:48;;;;;;;28.35;5.95;;;4.10;99.90;;;;;;4976785;28;20042;-83
2022/02/07 04:41:14;;;;;;;29.67;4.57;;;4.00;99.90;;;;;;4977783;28;20030;-83
2022/02/07 04:43:47;;;;;;;29.95;5.07;;;4.00;99.90;;;;;;4925406;28;20710;-84
2022/02/07 04:57:05;;;;;;;27.92;4.63;;;4.10;99.90;;;;;;4977283;28;20078;-85
2022/02/07 04:59:12;;;;;;;24.75;5.55;;;4.00;99.90;;;;;;4957699;28;20039;-84
2022/02/07 05:01:51;;;;;;;29.77;5.60;;;4.00;99.90;;;;;;4959739;28;20031;-87
2022/02/07 05:04:57;;;;;;;25.77;5.03;;;4.10;99.90;;;;;;4950191;28;20035;-84
2022/02/07 05:15:22;;;;;;;33.35;5.72;;;4.20;99.90;;;;;;4951143;28;20099;-88
2022/02/07 05:17:48;;;;;;;28.17;5.47;;;4.10;99.90;;;;;;4962299;28;20027;-83
2022/02/07 05:20:13;;;;;;;22.85;4.47;;;4.10;99.90;;;;;;4976340;28;20041;-81
2022/02/07 05:22:39;;;;;;;21.75;4.88;;;4.00;99.90;;;;;;4978071;28;20030;-82
2022/02/07 05:25:06;;;;;;;22.95;4.68;;;3.90;99.90;;;;;;4945561;28;20031;-83
2022/02/07 05:27:32;;;;;;;18.00;4.53;;;3.90;99.90;;;;;;4963076;28;20092;-83
2022/02/07 05:29:58;;;;;;;25.10;4.53;;;3.80;99.90;;;;;;4961640;28;20069;-83
2022/02/07 05:32:24;;;;;;;27.27;5.50;;;3.90;99.90;;;;;;4962573;28;20026;-81
2022/02/07 05:34:51;;;;;;;22.33;4.28;;;3.90;99.90;;;;;;4978433;28;20042;-81
2022/02/07 05:37:17;;;;;;;26.08;5.05;;;3.90;99.90;;;;;;4981079;28;20165;-81
2022/02/07 05:39:46;;;;;;;22.70;4.85;;;4.00;99.90;;;;;;4980044;28;20043;-81
2022/02/07 05:42:12;;;;;;;19.80;3.88;;;4.10;99.90;;;;;;4963676;28;20031;-81
2022/02/07 05:44:39;;;;;;;19.92;3.42;;;4.20;99.90;;;;;;4946996;28;20082;-81
2022/02/07 05:47:06;;;;;;;18.95;3.65;;;4.50;99.90;;;;;;4965471;28;20023;-83
2022/02/07 05:49:32;;;;;;;18.80;3.38;;;4.50;99.90;;;;;;4974423;28;20016;-84
2022/02/07 05:51:58;;;;;;;16.80;3.58;;;4.30;99.90;;;;;;4970711;28;20023;-83
2022/02/07 05:54:24;;;;;;;17.00;4.15;;;4.30;99.90;;;;;;4943279;28;20094;-83
2022/02/07 05:56:50;;;;;;;27.88;3.97;;;4.10;99.90;;;;;;4955899;29;20039;-84
2022/02/07 05:59:16;;;;;;;24.40;5.03;;;4.00;99.90;;;;;;4935141;28;20024;-83
2022/02/07 06:01:42;;;;;;;17.83;4.03;;;3.80;99.90;;;;;;4979414;28;20019;-83
2022/02/07 06:04:07;;;;;;;23.38;4.75;;;3.80;99.90;;;;;;4948094;28;20030;-83
2022/02/07 06:06:33;;;;;;;20.73;4.43;;;3.60;99.90;;;;;;4964806;28;20042;-84
2022/02/07 06:08:59;;;;;;;21.27;4.20;;;3.60;99.90;;;;;;4965823;28;20133;-84
2022/02/07 06:11:25;;;;;;;23.95;4.65;;;3.60;99.90;;;;;;4977692;28;20031;-83
2022/02/07 06:13:50;;;;;;;22.15;5.05;;;3.60;99.90;;;;;;4946516;28;20166;-83
2022/02/07 06:16:17;;;;;;;28.23;4.78;;;3.50;99.90;;;;;;4943898;28;20131;-83
2022/02/07 06:18:47;;;;;;;24.90;3.95;;;3.40;99.90;;;;;;4961113;28;20542;-83
2022/02/07 06:21:13;;;;;;;27.95;4.60;;;3.50;99.90;;;;;;4966817;28;20106;-83
2022/02/07 06:23:40;;;;;;;26.67;3.63;;;3.40;99.90;;;;;;4969147;28;20038;-83
2022/02/07 06:26:05;;;;;;;30.33;4.28;;;3.50;99.90;;;;;;4981727;28;20031;-83
2022/02/07 06:28:31;;;;;;;29.20;4.85;;;3.30;99.90;;;;;;4964607;28;20106;-83
2022/02/07 06:30:57;;;;;;;23.17;3.45;;;3.40;99.90;;;;;;4966202;28;20176;-83
2022/02/07 06:33:23;;;;;;;22.95;3.63;;;3.40;99.90;;;;;;4963640;28;20026;-83
2022/02/07 06:35:50;;;;;;;21.77;4.20;;;3.30;99.90;;;;;;4962990;28;20416;-83
2022/02/07 06:38:16;;;;;;;16.98;3.65;;;3.30;99.90;;;;;;4981352;28;20031;-83
2022/02/07 06:40:42;;;;;;;23.05;4.18;;;3.20;99.90;;;;;;4980717;28;20058;-83
2022/02/07 06:43:08;;;;;;;17.30;3.38;;;3.30;99.90;;;;;;4975730;28;21284;-83
2022/02/07 06:45:34;;;;;;;25.15;3.63;;;3.30;99.90;;;;;;4979354;28;20502;-83
2022/02/07 06:47:59;;;;;;;16.85;4.07;;;3.40;99.90;;;;;;4962214;29;20050;-83
2022/02/07 06:50:25;;;;;;;17.27;3.63;;;3.30;99.90;;;;;;4977648;28;20038;-83
2022/02/07 06:52:51;;;;;;;17.45;2.75;;;3.30;99.90;;;;;;4971336;28;20066;-82
2022/02/07 06:55:17;;;;;;;23.58;4.50;;;3.20;99.90;;;;;;4959359;28;20046;-83
2022/02/07 06:57:42;;;;;;;22.48;4.05;;;3.20;99.90;;;;;;4953932;29;20075;-83
2022/02/07 07:00:10;;;;;;;19.55;3.35;;;3.10;99.90;;;;;;4947347;28;20042;-82
2022/02/07 07:02:38;;;;;;;17.50;3.03;;;3.10;99.90;;;;;;4962778;28;20027;-82
2022/02/07 07:05:11;;;;;;;21.88;3.10;;;3.10;99.90;;;;;;4974699;28;20058;-82
2022/02/07 07:07:37;;;;;;;17.58;3.25;;;3.10;99.90;;;;;;4945274;28;20415;-83
2022/02/07 07:10:05;;;;;;;19.27;3.25;;;3.20;99.90;;;;;;4970145;28;20026;-83
2022/02/07 07:12:30;;;;;;;24.48;3.70;;;3.10;99.90;;;;;;4958155;28;20045;-82
2022/02/07 07:15:10;;;;;;;12.63;2.63;;;3.00;99.90;;;;;;4958307;28;20043;-83
2022/02/07 07:17:36;;;;;;;19.15;3.70;;;3.00;99.90;;;;;;4970226;28;20054;-84
2022/02/07 07:20:05;;;;;;;13.60;2.60;;;3.00;99.90;;;;;;4963999;28;20031;-91
2022/02/07 07:22:32;;;;;;;13.70;2.60;;;2.90;99.90;;;;;;4953276;28;20428;-86
2022/02/07 07:24:59;;;;;;;21.05;3.03;;;2.90;99.90;;;;;;4971919;28;20075;-87
2022/02/07 07:27:28;;;;;;;13.82;2.13;;;2.80;99.90;;;;;;4969699;28;20030;-84
2022/02/07 07:29:54;;;;;;;11.88;2.03;;;2.80;99.90;;;;;;4959169;28;20043;-85
2022/02/07 07:32:23;;;;;;;14.32;3.00;;;2.80;99.90;;;;;;4959076;28;20026;-83
2022/02/07 07:34:51;;;;;;;13.40;2.90;;;2.80;99.90;;;;;;4960339;28;20095;-83
2022/02/07 07:37:16;;;;;;;19.85;3.15;;;2.80;99.90;;;;;;4960076;28;20042;-81
2022/02/07 07:39:42;;;;;;;17.38;3.00;;;2.80;99.90;;;;;;4974878;28;20386;-82
2022/02/07 07:42:09;;;;;;;18.20;3.45;;;2.80;99.90;;;;;;4962042;28;20023;-82
2022/02/07 07:44:36;;;;;;;18.30;3.30;;;2.80;99.90;;;;;;4945813;28;20122;-82
2022/02/07 07:47:25;;;;;;;22.45;3.33;;;2.90;99.90;;;;;;4960949;28;20038;-82
2022/02/07 07:50:03;;;;;;;21.33;4.05;;;3.00;99.90;;;;;;4973043;28;20034;-82
2022/02/07 07:52:43;;;;;;;26.60;3.47;;;3.10;99.90;;;;;;4987209;28;20054;-82
2022/02/07 08:03:26;;;;;;;29.60;4.20;;;3.70;99.90;;;;;;4964649;28;20054;-82
2022/02/07 08:06:06;;;;;;;24.52;4.45;;;3.70;99.90;;;;;;4949084;28;20384;-82
2022/02/07 08:08:40;;;;;;;33.97;4.95;;;3.80;99.90;;;;;;4945895;28;20065;-82
2022/02/07 08:11:10;;;;;;;20.50;4.13;;;3.90;99.90;;;;;;4958115;28;20090;-82
2022/02/07 08:13:39;;;;;;;31.15;5.05;;;3.90;99.90;;;;;;4946705;28;20479;-82
2022/02/07 08:16:05;;;;;;;28.83;4.68;;;4.00;99.90;;;;;;4933899;28;20105;-82
2022/02/07 08:18:31;;;;;;;26.92;5.40;;;3.90;99.90;;;;;;4981348;28;20467;-82
2022/02/07 08:20:56;;;;;;;28.38;4.95;;;4.00;99.90;;;;;;4947515;28;20039;-82
2022/02/07 08:23:22;;;;;;;27.15;4.40;;;4.10;99.90;;;;;;4970634;28;20155;-81
2022/02/07 08:25:48;;;;;;;27.48;4.80;;;4.20;99.90;;;;;;4947193;28;20031;-82
2022/02/07 08:28:13;;;;;;;38.40;4.63;;;4.20;99.90;;;;;;4960218;29;20149;-82
2022/02/07 08:30:39;;;;;;;28.25;6.25;;;4.30;99.90;;;;;;4974898;28;20116;-82
2022/02/07 08:33:06;;;;;;;23.70;4.60;;;4.30;99.90;;;;;;4963079;28;20126;-82
2022/02/07 08:35:32;;;;;;;28.67;5.18;;;4.40;99.90;;;;;;4963172;28;20074;-82
2022/02/07 08:37:58;;;;;;;24.45;4.68;;;4.40;99.90;;;;;;4965329;28;20031;-82
2022/02/07 08:40:24;;;;;;;31.38;4.72;;;4.40;99.90;;;;;;4962451;28;20027;-82
2022/02/07 08:42:50;;;;;;;26.80;5.47;;;4.50;99.90;;;;;;4975782;28;20066;-82
2022/02/07 08:45:17;;;;;;;30.15;4.55;;;4.50;99.90;;;;;;4976750;28;20082;-82
2022/02/07 08:47:43;;;;;;;24.65;4.28;;;4.60;99.90;;;;;;4956637;28;20066;-82
2022/02/07 08:50:11;;;;;;;30.67;5.05;;;4.70;99.90;;;;;;4945016;28;20039;-82
2022/02/07 08:52:45;;;;;;;26.42;4.30;;;4.80;99.90;;;;;;4975350;28;20023;-81
2022/02/07 08:55:16;;;;;;;33.80;5.55;;;4.80;99.90;;;;;;4961748;28;20046;-83
2022/02/07 08:57:45;;;;;;;24.90;4.28;;;4.90;99.90;;;;;;4964905;28;20031;-82
2022/02/07 09:00:23;;;;;;;25.65;5.07;;;4.90;99.90;;;;;;4964174;28;20506;-82
2022/02/07 09:03:08;;;;;;;25.65;5.43;;;5.00;99.90;;;;;;4948585;28;20031;-82
2022/02/07 09:05:44;;;;;;;25.02;4.85;;;5.10;99.90;;;;;;4963564;28;20066;-83
2022/02/07 09:08:24;;;;;;;33.20;5.22;;;5.10;99.90;;;;;;4960889;28;20090;-82
2022/02/07 09:10:51;;;;;;;26.50;4.60;;;5.20;99.90;;;;;;4971565;28;20030;-82
2022/02/07 09:13:18;;;;;;;34.45;5.20;;;5.30;99.90;;;;;;4975026;28;20091;-81
2022/02/07 09:16:29;;;;;;;23.08;4.97;;;5.40;99.90;;;;;;4977981;28;20043;-82
2022/02/07 09:18:30;;;;;;;27.38;5.07;;;5.30;99.90;;;;;;4958922;28;20039;-82
2022/02/07 09:20:58;;;;;;;31.38;4.60;;;5.40;99.90;;;;;;4976540;28;20065;-82
2022/02/07 09:23:24;;;;;;;30.58;4.97;;;5.50;99.90;;;;;;4980053;28;20023;-83
2022/02/07 09:25:49;;;;;;;29.58;5.10;;;5.60;99.90;;;;;;4946310;28;20026;-83
2022/02/07 09:28:16;;;;;;;29.25;5.13;;;5.70;99.90;;;;;;4919209;28;20030;-82
2022/02/07 09:30:42;;;;;;;36.45;5.38;;;5.80;99.90;;;;;;4948935;28;20050;-85
2022/02/07 09:33:08;;;;;;;26.55;5.07;;;5.80;99.90;;;;;;4957422;28;20026;-85
2022/02/07 09:35:35;;;;;;;27.33;4.70;;;5.80;99.90;;;;;;4962652;28;20052;-82
2022/02/07 09:38:02;;;;;;;34.65;6.50;;;5.90;99.90;;;;;;4965287;28;20507;-84
2022/02/07 09:40:28;;;;;;;24.17;4.90;;;6.00;99.90;;;;;;4944271;28;20027;-84
2022/02/07 09:43:00;;;;;;;32.17;4.50;;;6.10;99.90;;;;;;4959809;29;20063;-85
2022/02/07 09:45:32;;;;;;;29.70;4.85;;;6.20;99.90;;;;;;4969873;28;20027;-85
2022/02/07 09:48:03;;;;;;;23.48;4.47;;;6.20;99.90;;;;;;4974031;28;20542;-84
2022/02/07 09:50:30;;;;;;;26.52;4.88;;;6.40;99.90;;;;;;4981261;28;20026;-84
2022/02/07 09:52:56;;;;;;;24.83;5.35;;;6.40;99.90;;;;;;4975833;28;20034;-84
2022/02/07 09:55:22;;;;;;;23.60;5.00;;;6.50;99.90;;;;;;4981555;28;20038;-84
2022/02/07 09:57:52;;;;;;;29.85;5.28;;;6.60;99.90;;;;;;4966248;28;20475;-84
2022/02/07 10:00:22;;;;;;;22.60;3.92;;;6.70;99.90;;;;;;4982485;28;20535;-84
2022/02/07 10:02:53;;;;;;;24.48;4.07;;;6.80;99.90;;;;;;4962472;29;20464;-84
2022/02/07 10:05:24;;;;;;;24.45;4.72;;;6.80;99.90;;;;;;4971854;28;20058;-84
2022/02/07 10:08:12;;;;;;;31.83;4.88;;;6.80;99.90;;;;;;4966523;28;20035;-84
2022/02/07 10:10:52;;;;;;;24.98;5.45;;;6.90;99.90;;;;;;4982098;28;20030;-84
2022/02/07 10:13:41;;;;;;;25.15;4.15;;;6.90;99.90;;;;;;4968265;28;20027;-84
2022/02/07 10:39:15;;;;;;;22.75;3.45;;;7.00;99.90;;;;;;4983309;28;20050;-84
2022/02/07 10:44:31;;;;;;;25.45;4.35;;;7.10;99.90;;;;;;4983224;28;20027;-84
2022/02/07 10:46:56;;;;;;;25.40;4.38;;;7.20;99.90;;;;;;4964338;28;20062;-84
2022/02/07 10:49:22;;;;;;;23.27;4.20;;;7.20;99.90;;;;;;4968801;28;20103;-83
2022/02/07 10:51:58;;;;;;;21.80;3.75;;;7.30;99.90;;;;;;4972605;28;20054;-83
2022/02/07 10:54:25;;;;;;;21.58;4.68;;;7.40;99.90;;;;;;4966693;28;20019;-83
2022/02/07 10:56:51;;;;;;;26.85;3.80;;;7.50;99.90;;;;;;4957799;28;20042;-83
2022/02/07 10:59:21;;;;;;;26.52;4.78;;;7.60;99.90;;;;;;4958054;28;20039;-82
2022/02/07 11:04:24;;;;;;;23.42;4.38;;;7.70;99.90;;;;;;4964927;28;20050;-82
2022/02/07 11:06:56;;;;;;;22.25;4.18;;;7.80;99.90;;;;;;4975874;28;20499;-84
2022/02/07 11:22:43;;;;;;;22.75;3.90;;;8.50;99.90;;;;;;4967020;28;20031;-82
2022/02/07 11:27:42;;;;;;;18.08;3.60;;;8.50;99.90;;;;;;4968972;28;20037;-83
2022/02/07 11:30:12;;;;;;;28.25;3.95;;;8.50;99.90;;;;;;4978560;28;20047;-82
2022/02/07 11:32:41;;;;;;;24.52;4.28;;;8.70;99.90;;;;;;4950830;28;20023;-82
2022/02/07 11:35:18;;;;;;;22.88;4.43;;;8.90;99.90;;;;;;4987291;28;20045;-82
2022/02/07 11:38:01;;;;;;;22.38;3.80;;;8.60;99.90;;;;;;4945372;29;20031;-82
2022/02/07 11:40:37;;;;;;;21.35;4.03;;;8.70;99.90;;;;;;4958399;28;20090;-82
2022/02/07 11:43:13;;;;;;;24.27;4.00;;;8.60;99.90;;;;;;4979785;28;20106;-82
2022/02/07 11:45:55;;;;;;;21.50;3.85;;;8.80;99.90;;;;;;4982073;28;20034;-82
2022/02/07 11:48:37;;;;;;;20.20;3.70;;;8.80;99.90;;;;;;4981726;28;20105;-82
2022/02/07 11:51:11;;;;;;;19.05;3.80;;;8.60;99.90;;;;;;4960317;29;20081;-82
2022/02/07 11:53:47;;;;;;;24.77;3.85;;;8.50;99.90;;;;;;4973636;28;20383;-82
2022/02/07 11:56:46;;;;;;;19.40;4.10;;;8.40;99.90;;;;;;4979482;28;20035;-82
2022/02/07 11:59:24;;;;;;;23.92;3.90;;;8.30;99.90;;;;;;4981041;28;20049;-82
2022/02/07 12:02:00;;;;;;;22.25;3.58;;;8.20;99.90;;;;;;4981420;28;20039;-82
2022/02/07 12:04:28;;;;;;;27.40;4.07;;;8.30;99.90;;;;;;4960892;29;20039;-82
2022/02/07 12:07:20;;;;;;;21.70;4.07;;;8.20;99.90;;;;;;4961124;28;20030;-82
2022/02/07 12:10:05;;;;;;;;;;;8.10;99.90;;;;;;4980460;28;20090;-82
2022/02/07 12:12:51;;;;;;;20.40;3.65;;;8.30;99.90;;;;;;4963974;28;19921;-81
2022/02/07 12:15:23;;;;;;;19.77;4.20;;;8.80;99.90;;;;;;4980229;28;20065;-81
2022/02/07 12:17:56;;;;;;;19.88;3.55;;;9.40;99.90;;;;;;4964248;28;20058;-82
2022/02/07 12:20:30;;;;;;;19.63;3.40;;;10.60;99.90;;;;;;4979955;28;20114;-81
2022/02/07 12:22:58;;;;;;;18.67;3.25;;;10.70;99.90;;;;;;4966811;28;20071;-81
2022/02/07 12:25:51;;;;;;;19.75;3.35;;;10.70;99.90;;;;;;4953974;28;20023;-81
2022/02/07 12:28:30;;;;;;;16.23;2.92;;;10.80;99.90;;;;;;4959834;28;20038;-81
2022/02/07 12:33:30;;;;;;;22.33;3.90;;;10.00;99.90;;;;;;4972039;28;20106;-82
2022/02/07 12:36:00;;;;;;;19.02;3.40;;;10.40;99.90;;;;;;4973872;28;20037;-81
2022/02/07 12:38:33;;;;;;;20.67;3.63;;;10.60;99.90;;;;;;4959644;28;20467;-81
2022/02/07 12:41:00;;;;;;;19.27;3.00;;;11.70;99.90;;;;;;4952183;28;20375;-82
2022/02/07 12:43:26;;;;;;;16.05;2.92;;;12.20;99.90;;;;;;4974370;28;20075;-82
2022/02/07 12:45:52;;;;;;;15.10;3.30;;;12.80;99.90;;;;;;4961044;28;20023;-81
2022/02/07 12:48:25;;;;;;;16.00;2.75;;;12.60;99.90;;;;;;4974406;28;20031;-82
2022/02/07 12:50:53;;;;;;;17.45;3.70;;;12.70;99.90;;;;;;4961778;28;20069;-82
2022/02/07 12:53:24;;;;;;;19.77;3.40;;;13.60;99.90;;;;;;4976864;28;20029;-82
2022/02/07 12:55:56;;;;;;;17.85;3.08;;;13.60;99.90;;;;;;4975572;28;20041;-81
2022/02/07 12:58:23;;;;;;;16.20;3.05;;;14.20;98.50;;;;;;4973599;28;20037;-81
2022/02/07 13:00:49;;;;;;;13.27;2.88;;;13.20;99.00;;;;;;4948101;28;20528;-82
2022/02/07 13:03:15;;;;;;;15.90;3.55;;;12.20;99.90;;;;;;4979030;28;20027;-82
2022/02/07 13:05:43;;;;;;;17.55;2.83;;;11.80;99.90;;;;;;4958235;28;20058;-81
2022/02/07 13:08:14;;;;;;;17.77;2.75;;;11.10;99.90;;;;;;4974127;28;20031;-82
2022/02/07 13:10:40;;;;;;;;;;;10.40;99.90;;;;;;4972156;28;20502;-81
2022/02/07 13:13:48;;;;;;;19.55;3.08;;;10.20;99.90;;;;;;4976292;28;19964;-81
2022/02/07 13:16:02;;;;;;;17.55;2.83;;;10.10;99.90;;;;;;4971412;28;20042;-81
2022/02/07 13:18:33;;;;;;;17.55;2.50;;;10.70;99.90;;;;;;4958547;28;20034;-81
2022/02/07 13:21:03;;;;;;;17.35;3.22;;;10.10;99.90;;;;;;4956648;28;20030;-81
2022/02/07 13:23:29;;;;;;;13.82;2.58;;;10.00;99.90;;;;;;4964536;28;20031;-81
2022/02/07 13:25:56;;;;;;;16.20;3.47;;;9.80;99.90;;;;;;4941170;28;20046;-81
2022/02/07 13:28:25;;;;;;;17.65;3.15;;;9.20;99.90;;;;;;4957277;28;20031;-81
2022/02/07 13:30:59;;;;;;;13.40;2.53;;;8.70;99.90;;;;;;4970440;28;20035;-81
2022/02/07 13:33:25;;;;;;;19.48;3.42;;;8.50;99.90;;;;;;4972684;28;20019;-81
2022/02/07 13:35:56;;;;;;;18.35;3.30;;;8.60;99.90;;;;;;4956937;28;20234;-81
2022/02/07 13:38:23;;;;;;;16.55;3.38;;;8.40;99.90;;;;;;4969275;28;20030;-80
2022/02/07 13:40:50;;;;;;;21.38;4.60;;;8.20;99.90;;;;;;4960293;28;20031;-80
2022/02/07 13:43:25;;;;;;;18.65;5.30;;;8.00;99.90;;;;;;4974006;28;20046;-80
2022/02/07 13:45:56;;;;;;;16.05;2.63;;;7.90;99.90;;;;;;4978020;28;20046;-82
2022/02/07 13:48:25;;;;;;;12.73;2.78;;;7.80;99.90;;;;;;4964242;28;20037;-80
2022/02/07 13:50:54;;;;;;;14.77;3.03;;;7.90;99.90;;;;;;4978465;28;20078;-80
2022/02/07 13:53:22;;;;;;;20.10;3.13;;;8.40;99.90;;;;;;4975098;28;20050;-80
2022/02/07 13:55:50;;;;;;;17.63;3.25;;;8.50;99.90;;;;;;4962984;28;20097;-80
2022/02/07 13:58:19;;;;;;;15.18;3.65;;;8.60;99.90;;;;;;4978108;28;20033;-80
2022/02/07 14:00:48;;;;;;;17.15;2.85;;;8.50;99.90;;;;;;4968753;28;20030;-79
2022/02/07 14:03:20;;;;;;;20.70;2.92;;;8.20;99.90;;;;;;4960818;28;20026;-80
2022/02/07 14:05:49;;;;;;;15.48;2.97;;;7.90;99.90;;;;;;4978224;28;20019;-80
2022/02/07 14:08:16;;;;;;;23.30;2.83;;;7.70;99.90;;;;;;4971171;28;20424;-84
2022/02/07 14:10:44;;;;;;;14.32;3.15;;;7.60;99.90;;;;;;4977763;28;20098;-79
2022/02/07 14:13:15;;;;;;;13.70;2.67;;;7.70;99.90;;;;;;4979411;28;20031;-79
2022/02/07 14:15:45;;;;;;;18.40;3.37;;;7.80;99.90;;;;;;4968349;28;20466;-79
2022/02/07 14:18:15;;;;;;;17.52;3.47;;;8.20;99.90;;;;;;4967662;28;20019;-78
2022/02/07 14:20:41;;;;;;;19.58;4.03;;;8.80;99.90;;;;;;4979985;28;20031;-79
2022/02/07 14:23:10;;;;;;;21.88;4.13;;;9.70;99.90;;;;;;4962734;28;20027;-78
2022/02/07 14:25:37;;;;;;;16.23;3.28;;;9.80;99.90;;;;;;4979623;28;20727;-79
2022/02/07 14:28:04;;;;;;;19.80;2.95;;;10.20;99.90;;;;;;4977900;28;20113;-80
2022/02/07 14:30:30;;;;;;;22.00;4.15;;;10.30;99.90;;;;;;4963058;28;20121;-80
2022/02/07 14:33:02;;;;;;;15.30;3.03;;;10.30;99.90;;;;;;4962643;28;20050;-79
2022/02/07 14:35:28;;;;;;;15.60;2.70;;;9.90;99.90;;;;;;4972332;28;20043;-79
2022/02/07 14:37:56;;;;;;;18.13;2.38;;;9.70;99.90;;;;;;4971361;28;20033;-79
2022/02/07 14:40:22;;;;;;;16.67;2.65;;;9.50;99.90;;;;;;4970292;28;20086;-79
2022/02/07 14:42:48;;;;;;;20.88;3.08;;;9.60;99.90;;;;;;4968781;28;20042;-79
2022/02/07 14:45:24;;;;;;;19.58;2.88;;;9.30;99.90;;;;;;4968943;28;20031;-79
2022/02/07 14:50:23;;;;;;;13.05;2.50;;;9.00;99.90;;;;;;4974956;28;20039;-79
2022/02/07 14:52:50;;;;;;;15.00;3.00;;;8.60;99.90;;;;;;4979679;28;20027;-79
2022/02/07 14:55:16;;;;;;;17.48;2.20;;;8.40;99.90;;;;;;4976495;28;20073;-78
2022/02/07 14:57:42;;;;;;;11.65;2.25;;;8.20;99.90;;;;;;4978092;28;20038;-79
2022/02/07 15:00:14;;;;;;;16.27;3.30;;;8.00;99.90;;;;;;4976830;28;20034;-78
2022/02/07 15:02:40;;;;;;;9.32;2.10;;;7.80;99.90;;;;;;4977675;28;20043;-78
2022/02/07 15:05:06;;;;;;;15.63;2.70;;;7.60;99.90;;;;;;4930836;28;20062;-79
2022/02/07 15:07:32;;;;;;;20.73;2.92;;;7.60;99.90;;;;;;4976776;28;20030;-78
2022/02/07 15:09:58;;;;;;;17.10;2.90;;;7.40;99.90;;;;;;4962196;28;20118;-78
2022/02/07 15:12:23;;;;;;;14.82;3.70;;;7.40;99.90;;;;;;4977894;28;20045;-79
2022/02/07 15:14:49;;;;;;;13.40;2.30;;;7.30;99.90;;;;;;4969753;28;20043;-81
2022/02/07 15:17:20;;;;;;;14.73;2.53;;;7.20;99.90;;;;;;4954783;28;20059;-79
2022/02/07 15:19:46;;;;;;;14.45;2.60;;;7.20;99.90;;;;;;4951826;29;20040;-77
2022/02/07 15:22:13;;;;;;;11.30;2.60;;;7.10;99.90;;;;;;4949910;29;20038;-77
2022/02/07 15:24:39;;;;;;;14.82;2.50;;;7.10;99.90;;;;;;4929598;29;20151;-76
2022/02/07 15:27:09;;;;;;;14.82;2.55;;;7.00;99.90;;;;;;4936817;29;20041;-78
2022/02/07 15:29:36;;;;;;;15.68;2.47;;;7.10;99.90;;;;;;4955396;29;20050;-79
2022/02/07 15:32:25;;;;;;;17.95;3.20;;;7.20;99.90;;;;;;4955285;28;20699;-79
2022/02/07 15:34:55;;;;;;;12.57;2.83;;;7.30;99.90;;;;;;4933245;29;20143;-78